Terminal Aerodrome Forecast
Issued by NWS

Home | Current Version | Previous Version | Text Only | Print | Product List | Glossary On
Versions: 1 2 3 4 5 6 7 8 9 10 11 12 13
000
FTUS43 KSGF 310500
TAFBBG
TAF
KBBG 310521Z 3106/0106 15007KT P6SM OVC100
     FM010000 14007KT P6SM VCSH BKN070 OVC100 PROB30 0100/0106 6SM
      -SHRA=

USA.gov is the U.S. government's official web portal to all federal, state and local government web resources and services.